Time;durP1;ratioP1;P1;durP2;ratioP2;P2;SDS_P1;SDS_P2;PMS_P1;PMS_P2;Temp;Humidity;BMP_temperature;BMP_pressure;BME280_temperature;BME280_humidity;BME280_pressure;Samples;Min_cycle;Max_cycle;Signal;HPM_P1;HPM_P2
2022/07/05 00:00:15;;;;;;;13.57;6.43;;;12.10;99.90;;;;;;4953152;28;20101;-70
2022/07/05 00:02:40;;;;;;;16.17;8.88;;;11.90;99.90;;;;;;4964670;28;20130;-70
2022/07/05 00:05:06;;;;;;;16.63;8.98;;;11.90;99.90;;;;;;4953210;28;20133;-70
2022/07/05 00:07:32;;;;;;;16.35;8.35;;;11.90;99.90;;;;;;4971978;28;20051;-70
2022/07/05 00:09:58;;;;;;;21.65;10.93;;;11.80;99.90;;;;;;4952903;28;20043;-70
2022/07/05 00:12:30;;;;;;;22.83;10.85;;;11.80;99.90;;;;;;4952600;28;20046;-70
2022/07/05 00:14:55;;;;;;;23.50;10.50;;;11.80;99.90;;;;;;4947099;28;20095;-70
2022/07/05 00:17:21;;;;;;;16.83;9.55;;;11.80;99.90;;;;;;4949462;28;20502;-70
2022/07/05 00:19:47;;;;;;;20.75;9.73;;;11.80;99.90;;;;;;4955235;28;20046;-70
2022/07/05 00:22:13;;;;;;;22.63;9.25;;;11.80;99.90;;;;;;4953335;28;20047;-70
2022/07/05 00:24:39;;;;;;;24.55;11.95;;;11.80;99.90;;;;;;4979356;28;20453;-70
2022/07/05 00:27:05;;;;;;;26.45;12.98;;;11.70;99.90;;;;;;4978036;28;20035;-70
2022/07/05 00:29:30;;;;;;;27.73;13.93;;;11.80;99.90;;;;;;4957650;28;20394;-70
2022/07/05 00:31:56;;;;;;;26.50;12.73;;;11.70;99.90;;;;;;4957583;28;20397;-70
2022/07/05 00:34:22;;;;;;;29.13;13.57;;;11.70;99.90;;;;;;4952332;28;20189;-70
2022/07/05 00:36:48;;;;;;;19.13;10.70;;;11.80;99.90;;;;;;4953594;28;20051;-70
2022/07/05 00:39:13;;;;;;;25.92;11.20;;;11.80;99.90;;;;;;4961651;28;20065;-69
2022/07/05 00:41:39;;;;;;;18.90;10.55;;;11.80;99.90;;;;;;4956558;28;20433;-70
2022/07/05 00:44:08;;;;;;;22.10;11.80;;;11.80;99.90;;;;;;4946900;28;20794;-69
2022/07/05 00:46:34;;;;;;;26.85;11.60;;;11.80;99.90;;;;;;4956334;28;20092;-70
2022/07/05 00:49:01;;;;;;;19.52;9.82;;;11.70;99.90;;;;;;4976851;28;20047;-69
2022/07/05 00:51:31;;;;;;;22.02;11.27;;;11.70;99.90;;;;;;4955166;28;20031;-69
2022/07/05 00:53:56;;;;;;;26.33;11.63;;;11.70;99.90;;;;;;4959742;28;20039;-69
2022/07/05 00:56:24;;;;;;;21.17;10.35;;;11.70;99.90;;;;;;4959126;28;20684;-69
2022/07/05 00:58:51;;;;;;;21.65;10.82;;;11.70;99.90;;;;;;4957483;28;20077;-69
2022/07/05 01:01:16;;;;;;;27.42;12.73;;;11.70;99.90;;;;;;4958836;28;20172;-69
2022/07/05 01:03:43;;;;;;;17.45;7.85;;;11.70;99.90;;;;;;4956687;28;20145;-69
2022/07/05 01:06:11;;;;;;;8.00;5.22;;;11.70;99.90;;;;;;4955833;28;20035;-69
2022/07/05 01:08:42;;;;;;;10.10;5.72;;;11.60;99.90;;;;;;4952218;28;20081;-69
2022/07/05 01:11:09;;;;;;;8.55;5.22;;;11.50;99.90;;;;;;4977995;28;20078;-69
2022/07/05 01:13:38;;;;;;;8.13;4.88;;;11.30;99.90;;;;;;4956142;28;20522;-69
2022/07/05 01:16:04;;;;;;;75.07;6.00;;;11.30;99.90;;;;;;4955749;28;20501;-69
2022/07/05 01:18:31;;;;;;;7.93;4.00;;;11.10;99.90;;;;;;4957663;28;20041;-69
2022/07/05 01:21:01;;;;;;;8.40;4.63;;;11.00;99.90;;;;;;4959246;28;20047;-69
2022/07/05 01:23:28;;;;;;;7.65;4.28;;;10.90;99.90;;;;;;4964152;28;20057;-69
2022/07/05 01:25:54;;;;;;;9.82;5.90;;;10.80;99.90;;;;;;4963246;28;20847;-69
2022/07/05 01:28:20;;;;;;;10.80;6.05;;;10.80;99.90;;;;;;4957864;28;20050;-69
2022/07/05 01:30:47;;;;;;;12.32;6.25;;;10.80;99.90;;;;;;4955764;28;20428;-69
2022/07/05 01:33:13;;;;;;;10.23;6.05;;;10.90;99.90;;;;;;4960132;28;20477;-68
2022/07/05 01:35:38;;;;;;;14.77;7.38;;;11.00;99.90;;;;;;4958127;28;20046;-68
2022/07/05 01:38:04;;;;;;;19.80;10.52;;;11.00;99.90;;;;;;4955148;28;20458;-68
2022/07/05 01:40:31;;;;;;;17.15;9.32;;;11.00;99.90;;;;;;4957831;28;20043;-68
2022/07/05 01:42:56;;;;;;;19.08;9.55;;;11.00;99.90;;;;;;4959017;28;20047;-68
2022/07/05 01:45:41;;;;;;;15.52;8.55;;;11.00;99.90;;;;;;4956006;28;20053;-68
2022/07/05 01:48:09;;;;;;;18.05;9.02;;;11.00;99.90;;;;;;4956369;28;20062;-67
2022/07/05 01:50:46;;;;;;;18.58;9.75;;;11.00;99.90;;;;;;4955007;28;20105;-68
2022/07/05 01:53:19;;;;;;;18.77;9.65;;;11.00;99.90;;;;;;4956503;28;20555;-68
2022/07/05 01:55:45;;;;;;;21.48;11.38;;;11.00;99.90;;;;;;4959355;28;20038;-68
2022/07/05 01:58:11;;;;;;;25.00;11.60;;;11.00;99.90;;;;;;4980288;28;20052;-68
2022/07/05 02:00:48;;;;;;;23.33;11.60;;;11.10;99.90;;;;;;4955744;28;20490;-68
2022/07/05 02:03:15;;;;;;;24.15;12.50;;;11.00;99.90;;;;;;4979876;28;20046;-67
2022/07/05 02:05:42;;;;;;;16.42;8.63;;;11.00;99.90;;;;;;4957201;28;20038;-67
2022/07/05 02:08:09;;;;;;;15.27;7.97;;;10.90;99.90;;;;;;4955877;28;20057;-67
2022/07/05 02:10:38;;;;;;;16.83;8.73;;;10.90;99.90;;;;;;4956181;28;20032;-67
2022/07/05 02:13:05;;;;;;;17.55;9.43;;;10.90;99.90;;;;;;4955519;28;20094;-67
2022/07/05 02:15:32;;;;;;;16.35;8.98;;;10.80;99.90;;;;;;4955461;28;20034;-67
2022/07/05 02:17:59;;;;;;;19.50;10.35;;;10.80;99.90;;;;;;4954914;28;20105;-67
2022/07/05 02:20:24;;;;;;;20.50;10.18;;;10.80;99.90;;;;;;4976575;28;20132;-68
2022/07/05 02:22:50;;;;;;;15.43;8.30;;;10.70;99.90;;;;;;4958735;28;20031;-67
2022/07/05 02:25:15;;;;;;;16.35;8.50;;;10.80;99.90;;;;;;4958682;28;20065;-68
2022/07/05 02:27:41;;;;;;;15.65;8.93;;;10.80;99.90;;;;;;4952695;28;20051;-68
2022/07/05 02:30:07;;;;;;;12.05;6.90;;;10.80;99.90;;;;;;4956700;28;20082;-67
2022/07/05 02:32:33;;;;;;;12.23;7.00;;;10.80;99.90;;;;;;4952032;28;20038;-67
2022/07/05 02:34:58;;;;;;;17.88;10.02;;;10.80;99.90;;;;;;4954727;28;20500;-67
2022/07/05 02:37:24;;;;;;;20.77;10.60;;;10.80;99.90;;;;;;4969869;28;20118;-67
2022/07/05 02:39:49;;;;;;;21.40;10.60;;;10.80;99.90;;;;;;4953909;28;20046;-67
2022/07/05 02:42:15;;;;;;;30.15;14.82;;;10.80;99.90;;;;;;4956600;28;20442;-67
2022/07/05 02:44:41;;;;;;;25.25;12.55;;;10.80;99.90;;;;;;4955790;28;20026;-67
2022/07/05 02:47:06;;;;;;;33.33;15.05;;;10.80;99.90;;;;;;4959145;28;20034;-67
2022/07/05 02:49:32;;;;;;;34.17;16.85;;;10.80;99.90;;;;;;4956331;28;20043;-67
2022/07/05 02:51:57;;;;;;;23.85;12.18;;;10.80;99.90;;;;;;4959771;28;20056;-67
2022/07/05 02:54:23;;;;;;;17.73;9.25;;;10.70;99.90;;;;;;4955183;28;20058;-68
2022/07/05 02:56:48;;;;;;;18.60;9.52;;;10.70;99.90;;;;;;4955750;28;20302;-67
2022/07/05 02:59:14;;;;;;;18.35;8.75;;;10.60;99.90;;;;;;4958572;28;20389;-67
2022/07/05 03:01:40;;;;;;;39.50;17.80;;;10.60;99.90;;;;;;4955050;28;20046;-67
2022/07/05 03:04:06;;;;;;;23.77;12.05;;;10.60;99.90;;;;;;4950116;28;20035;-68
2022/07/05 03:06:32;;;;;;;21.42;10.95;;;10.70;99.90;;;;;;4967558;28;20389;-68
2022/07/05 03:08:58;;;;;;;30.90;15.05;;;10.60;99.90;;;;;;4979642;28;20038;-68
2022/07/05 03:11:23;;;;;;;23.75;12.38;;;10.60;99.90;;;;;;4940247;28;20038;-68
2022/07/05 03:13:49;;;;;;;27.60;13.23;;;10.70;99.90;;;;;;4951521;28;20164;-68
2022/07/05 03:16:15;;;;;;;33.95;15.60;;;10.70;99.90;;;;;;4961850;28;20050;-67
2022/07/05 03:18:40;;;;;;;36.92;16.67;;;10.70;99.90;;;;;;4960543;28;20030;-68
2022/07/05 03:21:06;;;;;;;34.50;16.70;;;10.80;99.90;;;;;;4960015;28;20039;-68
2022/07/05 03:23:32;;;;;;;27.20;13.48;;;10.80;99.90;;;;;;4956051;28;20142;-68
2022/07/05 03:25:58;;;;;;;26.40;13.77;;;10.80;99.90;;;;;;4957261;28;20125;-68
2022/07/05 03:28:24;;;;;;;26.83;13.63;;;10.80;99.90;;;;;;4954798;28;20066;-68
2022/07/05 03:30:49;;;;;;;29.40;14.43;;;10.80;99.90;;;;;;4952519;28;20482;-68
2022/07/05 03:33:15;;;;;;;26.13;14.07;;;10.70;99.90;;;;;;4958990;28;20042;-67
2022/07/05 03:35:40;;;;;;;35.17;16.60;;;10.80;99.90;;;;;;4957191;28;20441;-67
2022/07/05 03:38:06;;;;;;;27.85;13.77;;;10.70;99.90;;;;;;4957351;28;20401;-68
2022/07/05 03:40:32;;;;;;;33.72;14.00;;;10.70;99.90;;;;;;4953436;28;20162;-68
2022/07/05 03:42:57;;;;;;;24.60;12.45;;;10.70;99.90;;;;;;4955569;28;20393;-68
2022/07/05 03:45:23;;;;;;;23.77;13.05;;;10.70;99.90;;;;;;4952409;28;20140;-68
2022/07/05 03:47:49;;;;;;;27.45;13.13;;;10.60;99.90;;;;;;4959183;28;20054;-68
2022/07/05 03:50:14;;;;;;;28.70;14.43;;;10.70;99.90;;;;;;4955494;28;20501;-68
2022/07/05 03:52:40;;;;;;;26.02;12.63;;;10.70;99.90;;;;;;4957009;28;20052;-68
2022/07/05 03:55:06;;;;;;;25.20;14.30;;;10.80;99.90;;;;;;4958112;28;20042;-68
2022/07/05 03:57:31;;;;;;;20.75;11.90;;;10.80;99.90;;;;;;4954652;28;20086;-68
2022/07/05 03:59:57;;;;;;;27.55;13.52;;;10.80;99.90;;;;;;4957063;28;20543;-68
2022/07/05 04:02:22;;;;;;;25.92;13.40;;;10.90;99.90;;;;;;4958201;28;20593;-69
2022/07/05 04:04:48;;;;;;;26.15;13.73;;;10.90;99.90;;;;;;4950709;28;20130;-68
2022/07/05 04:07:13;;;;;;;32.63;15.75;;;11.00;99.90;;;;;;4956369;28;20042;-68
2022/07/05 04:09:39;;;;;;;33.63;16.23;;;11.10;99.90;;;;;;4954710;28;20038;-69
2022/07/05 04:12:05;;;;;;;45.38;20.27;;;11.20;99.90;;;;;;4951253;28;20204;-68
2022/07/05 04:14:31;;;;;;;44.75;19.95;;;11.40;99.90;;;;;;4957521;28;20053;-68
2022/07/05 04:16:56;;;;;;;46.65;21.23;;;11.40;99.90;;;;;;4962374;28;20418;-68
2022/07/05 04:19:22;;;;;;;49.88;21.95;;;11.60;99.90;;;;;;4935219;28;20113;-68
2022/07/05 04:21:48;;;;;;;56.05;22.80;;;11.70;99.90;;;;;;4956219;28;20140;-69
2022/07/05 04:24:13;;;;;;;50.70;23.70;;;11.90;99.90;;;;;;4961772;28;20035;-69
2022/07/05 04:26:39;;;;;;;50.35;22.75;;;12.00;99.90;;;;;;4962917;28;20046;-69
2022/07/05 04:29:05;;;;;;;52.15;23.98;;;12.20;99.90;;;;;;4950173;28;20130;-69
2022/07/05 04:31:31;;;;;;;58.72;24.33;;;12.30;99.90;;;;;;4964280;28;20030;-69
2022/07/05 04:33:56;;;;;;;65.30;27.95;;;12.40;99.90;;;;;;4957955;28;20080;-69
2022/07/05 04:36:22;;;;;;;72.38;28.55;;;12.60;99.90;;;;;;4960091;28;20480;-69
2022/07/05 04:38:47;;;;;;;66.72;27.40;;;12.60;99.90;;;;;;4959579;28;20100;-69
2022/07/05 04:41:13;;;;;;;71.25;28.45;;;12.70;99.90;;;;;;4961161;28;20101;-70
2022/07/05 04:43:38;;;;;;;62.65;27.48;;;12.80;99.90;;;;;;4954701;28;20501;-70
2022/07/05 04:46:04;;;;;;;78.78;29.92;;;13.00;99.90;;;;;;4956457;28;20038;-69
2022/07/05 04:48:30;;;;;;;69.40;28.98;;;13.00;99.90;;;;;;4963568;28;20045;-69
2022/07/05 04:50:55;;;;;;;61.25;27.15;;;13.20;99.90;;;;;;4960823;28;20058;-69
2022/07/05 04:53:21;;;;;;;62.97;26.90;;;13.20;99.90;;;;;;4962666;28;20043;-70
2022/07/05 04:55:46;;;;;;;63.97;26.27;;;13.30;99.90;;;;;;4964969;28;20039;-70
2022/07/05 04:58:12;;;;;;;65.00;27.55;;;13.40;99.90;;;;;;4958535;28;20052;-69
2022/07/05 05:00:38;;;;;;;69.40;28.50;;;13.60;99.90;;;;;;4958527;28;20051;-70
2022/07/05 05:03:03;;;;;;;65.80;28.83;;;13.70;99.90;;;;;;4961591;28;20042;-70
2022/07/05 05:05:29;;;;;;;74.55;28.95;;;13.90;99.90;;;;;;4959274;28;20594;-69
2022/07/05 05:07:54;;;;;;;70.82;30.02;;;14.00;99.90;;;;;;4955318;28;20034;-70
2022/07/05 05:10:20;;;;;;;66.05;28.38;;;14.20;99.90;;;;;;4956341;28;20035;-69
2022/07/05 05:12:45;;;;;;;65.82;29.13;;;14.10;99.90;;;;;;4953286;28;20138;-69
2022/07/05 05:15:11;;;;;;;67.07;29.30;;;14.30;99.90;;;;;;4951475;28;20529;-69
2022/07/05 05:17:42;;;;;;;67.93;29.20;;;14.40;99.90;;;;;;4956191;28;20054;-70
2022/07/05 05:20:16;;;;;;;57.05;26.52;;;14.50;99.90;;;;;;4955998;28;20462;-70
2022/07/05 05:22:42;;;;;;;63.33;27.25;;;14.60;99.90;;;;;;4952013;28;20053;-70
2022/07/05 05:25:09;;;;;;;62.30;27.15;;;14.60;99.90;;;;;;4959388;28;20038;-70
2022/07/05 05:27:35;;;;;;;55.95;25.38;;;14.70;99.90;;;;;;4952612;28;20042;-70
2022/07/05 05:30:00;;;;;;;57.95;26.45;;;14.80;99.90;;;;;;4951898;28;20065;-70
2022/07/05 05:32:26;;;;;;;60.83;25.90;;;14.80;99.90;;;;;;4956835;28;20050;-69
2022/07/05 05:34:52;;;;;;;57.38;24.98;;;14.90;99.90;;;;;;4956709;28;20039;-70
2022/07/05 05:37:17;;;;;;;55.28;25.20;;;15.00;99.90;;;;;;4956246;28;20062;-69
2022/07/05 05:39:43;;;;;;;55.78;25.38;;;15.10;99.90;;;;;;4944412;28;20053;-69
2022/07/05 05:42:08;;;;;;;61.80;25.40;;;15.20;99.90;;;;;;4952618;28;20117;-68
2022/07/05 05:44:34;;;;;;;62.55;25.02;;;15.30;99.90;;;;;;4959976;28;20050;-69
2022/07/05 05:47:00;;;;;;;59.67;25.60;;;15.40;99.90;;;;;;4954207;28;20489;-70
2022/07/05 05:49:25;;;;;;;56.58;25.65;;;15.30;99.90;;;;;;4958897;28;20069;-69
2022/07/05 05:51:51;;;;;;;58.35;25.92;;;15.40;99.90;;;;;;4944086;28;20039;-68
2022/07/05 05:54:16;;;;;;;64.30;26.13;;;15.40;99.90;;;;;;4954920;28;20050;-69
2022/07/05 05:56:42;;;;;;;57.35;24.67;;;15.60;99.90;;;;;;4972556;28;20035;-70
2022/07/05 05:59:08;;;;;;;59.85;25.85;;;15.80;99.90;;;;;;4962323;28;20062;-69
2022/07/05 06:01:34;;;;;;;48.17;21.58;;;15.80;99.90;;;;;;4973872;28;20050;-70
2022/07/05 06:03:59;;;;;;;41.75;19.35;;;15.90;99.90;;;;;;4957392;28;20130;-67
2022/07/05 06:06:25;;;;;;;49.85;19.80;;;16.00;99.90;;;;;;4972318;28;20039;-68
2022/07/05 06:08:51;;;;;;;44.35;19.52;;;16.10;99.90;;;;;;4972222;28;20066;-68
2022/07/05 06:11:16;;;;;;;40.90;18.80;;;16.20;99.90;;;;;;4954813;28;20047;-70
2022/07/05 06:13:42;;;;;;;36.70;17.13;;;16.40;99.90;;;;;;4956663;28;20047;-68
2022/07/05 06:16:08;;;;;;;38.85;18.35;;;16.60;99.90;;;;;;4955454;28;20034;-68
2022/07/05 06:18:34;;;;;;;36.28;17.25;;;16.60;99.90;;;;;;4956919;28;20182;-69
2022/07/05 06:21:00;;;;;;;44.85;18.38;;;16.60;99.90;;;;;;4966629;28;20125;-69
2022/07/05 06:23:26;;;;;;;39.50;16.60;;;16.70;99.90;;;;;;4941491;28;20429;-68
2022/07/05 06:25:51;;;;;;;29.90;15.43;;;16.70;99.90;;;;;;4949393;28;20035;-68
2022/07/05 06:28:17;;;;;;;35.47;15.50;;;16.70;99.90;;;;;;4937688;28;20378;-69
2022/07/05 06:30:43;;;;;;;26.58;13.10;;;16.80;99.90;;;;;;4958219;28;20365;-69
2022/07/05 06:33:08;;;;;;;24.77;12.38;;;16.80;99.90;;;;;;4961896;28;20050;-69
2022/07/05 06:35:35;;;;;;;20.25;9.55;;;16.80;99.90;;;;;;4973675;28;20053;-69
2022/07/05 06:38:02;;;;;;;21.27;8.73;;;16.70;99.90;;;;;;4960382;28;20176;-68
2022/07/05 06:40:43;;;;;;;17.95;8.88;;;16.70;99.90;;;;;;4962601;28;20049;-68
2022/07/05 06:43:11;;;;;;;16.15;8.35;;;16.70;99.90;;;;;;4960647;28;20042;-69
2022/07/05 06:45:38;;;;;;;13.65;6.40;;;16.80;99.90;;;;;;4961544;28;20046;-67
2022/07/05 06:48:09;;;;;;;13.35;5.90;;;16.90;99.90;;;;;;4959335;28;20093;-68
2022/07/05 06:50:37;;;;;;;16.73;5.70;;;17.10;99.90;;;;;;4957984;28;20054;-68
2022/07/05 06:53:04;;;;;;;18.40;7.05;;;17.20;99.90;;;;;;4959145;28;20038;-68
2022/07/05 06:55:29;;;;;;;16.80;6.05;;;17.30;99.90;;;;;;4956545;28;20042;-68
2022/07/05 06:58:00;;;;;;;14.60;5.70;;;17.50;99.90;;;;;;4943067;28;20042;-68
2022/07/05 07:00:26;;;;;;;27.95;5.82;;;17.50;99.90;;;;;;4964620;28;20027;-67
2022/07/05 07:02:52;;;;;;;10.57;5.00;;;17.50;99.90;;;;;;4943474;28;20434;-70
2022/07/05 07:05:18;;;;;;;10.55;5.20;;;17.50;99.90;;;;;;4964353;28;20401;-70
2022/07/05 07:10:28;;;;;;;12.25;4.93;;;17.50;99.90;;;;;;4956098;28;20521;-70
2022/07/05 07:12:54;;;;;;;15.98;5.20;;;17.30;99.90;;;;;;4959960;28;20039;-67
2022/07/05 07:15:19;;;;;;;14.50;5.97;;;17.40;99.90;;;;;;4956329;28;20092;-72
2022/07/05 07:17:45;;;;;;;19.70;5.43;;;17.40;99.90;;;;;;4965534;28;20117;-71
2022/07/05 07:20:11;;;;;;;18.75;5.38;;;17.50;99.90;;;;;;4971139;28;20041;-72
2022/07/05 07:22:37;;;;;;;17.60;5.38;;;17.50;99.90;;;;;;4955926;28;20129;-76
2022/07/05 07:25:05;;;;;;;12.85;5.60;;;17.60;99.90;;;;;;4955961;28;20465;-73
2022/07/05 07:27:31;;;;;;;16.48;5.10;;;17.70;99.90;;;;;;4955698;28;20094;-71
2022/07/05 07:29:56;;;;;;;16.63;5.80;;;17.60;99.90;;;;;;4952530;28;20345;-74
2022/07/05 07:32:22;;;;;;;13.63;5.78;;;17.50;99.90;;;;;;4936885;29;20123;-70
2022/07/05 07:34:48;;;;;;;17.40;6.18;;;17.50;99.90;;;;;;4937161;29;20371;-72
2022/07/05 07:37:13;;;;;;;33.15;8.43;;;17.50;99.90;;;;;;4920905;29;20094;-71
2022/07/05 07:39:40;;;;;;;16.48;5.50;;;17.30;99.90;;;;;;4936702;29;20102;-71
2022/07/05 07:42:09;;;;;;;29.63;6.32;;;17.50;99.90;;;;;;4937071;29;20082;-72
2022/07/05 07:44:35;;;;;;;17.30;4.95;;;17.70;99.90;;;;;;4937168;29;20474;-72
2022/07/05 07:47:00;;;;;;;12.77;4.32;;;17.90;99.90;;;;;;4946016;28;20043;-72
2022/07/05 07:49:26;;;;;;;12.32;4.05;;;18.00;99.90;;;;;;4956260;28;20034;-71
2022/07/05 07:51:51;;;;;;;13.43;4.43;;;17.90;99.90;;;;;;4956315;28;20489;-73
2022/07/05 07:54:17;;;;;;;7.28;4.25;;;17.90;99.90;;;;;;4955773;28;20039;-72
2022/07/05 07:56:43;;;;;;;13.05;4.13;;;18.00;99.90;;;;;;4952288;28;20070;-74
2022/07/05 07:59:09;;;;;;;15.57;4.72;;;18.20;99.90;;;;;;4936596;29;20043;-71
2022/07/05 08:01:35;;;;;;;12.93;4.38;;;18.30;99.90;;;;;;4936401;28;20093;-72
2022/07/05 08:04:00;;;;;;;16.08;4.60;;;18.50;99.90;;;;;;4936959;29;20406;-70
2022/07/05 08:06:26;;;;;;;11.45;4.00;;;18.60;99.90;;;;;;4936250;29;20043;-72
2022/07/05 08:08:52;;;;;;;19.05;4.20;;;18.70;99.90;;;;;;4936024;29;20066;-71
2022/07/05 08:11:17;;;;;;;16.23;4.53;;;18.90;99.90;;;;;;4941219;28;20031;-71
2022/07/05 08:13:43;;;;;;;13.52;3.83;;;18.70;99.90;;;;;;4939061;28;20184;-75
2022/07/05 08:16:10;;;;;;;12.70;4.07;;;18.50;99.90;;;;;;4954906;28;20039;-72
2022/07/05 08:21:34;;;;;;;14.10;4.40;;;17.90;99.90;;;;;;4945220;28;20059;-71
2022/07/05 08:24:11;;;;;;;10.05;4.28;;;18.00;99.90;;;;;;4955620;28;20039;-74
2022/07/05 08:26:39;;;;;;;11.48;4.32;;;18.10;99.90;;;;;;4954834;28;20042;-70
2022/07/05 08:29:07;;;;;;;14.73;4.30;;;18.10;99.90;;;;;;4938906;28;20050;-72
2022/07/05 08:31:35;;;;;;;18.40;4.88;;;18.40;99.90;;;;;;4955010;28;20097;-70
2022/07/05 08:34:01;;;;;;;15.63;4.90;;;18.50;99.90;;;;;;4954301;28;20031;-71
2022/07/05 08:36:26;;;;;;;9.32;4.00;;;18.40;99.90;;;;;;4955507;28;20039;-71
2022/07/05 08:38:52;;;;;;;12.73;4.57;;;18.20;99.90;;;;;;4955851;28;20129;-75
2022/07/05 08:41:20;;;;;;;12.10;4.85;;;18.30;99.90;;;;;;4955476;28;20500;-75
2022/07/05 08:43:49;;;;;;;15.65;4.38;;;18.40;99.90;;;;;;4955216;28;20039;-73
2022/07/05 08:46:16;;;;;;;14.65;4.50;;;18.60;99.90;;;;;;4955199;28;20094;-71
2022/07/05 08:48:43;;;;;;;10.48;5.10;;;18.60;99.90;;;;;;4955899;28;20039;-69
2022/07/05 08:51:18;;;;;;;11.63;4.50;;;18.40;99.90;;;;;;4948030;28;20400;-71
2022/07/05 08:53:45;;;;;;;11.70;4.57;;;18.10;99.90;;;;;;4961372;28;20466;-69
2022/07/05 08:56:13;;;;;;;11.25;4.07;;;18.10;99.90;;;;;;4968317;28;20090;-72
2022/07/05 08:58:39;;;;;;;9.50;4.60;;;18.30;99.90;;;;;;4936923;29;20054;-71
2022/07/05 09:01:07;;;;;;;13.20;4.38;;;18.60;99.90;;;;;;4970830;28;20050;-72
2022/07/05 09:03:53;;;;;;;15.43;4.75;;;18.90;99.90;;;;;;4924130;29;20046;-71
2022/07/05 09:06:25;;;;;;;13.00;4.65;;;18.90;99.90;;;;;;4936869;28;20509;-73
2022/07/05 09:08:55;;;;;;;11.73;4.35;;;18.50;99.90;;;;;;4962265;28;20490;-70
2022/07/05 09:11:30;;;;;;;14.02;4.47;;;18.40;99.90;;;;;;4961132;28;20661;-70
2022/07/05 09:13:56;;;;;;;14.63;4.90;;;18.40;99.90;;;;;;4969204;28;20406;-70
2022/07/05 09:16:22;;;;;;;12.60;4.20;;;18.20;99.90;;;;;;4957590;28;20050;-73
2022/07/05 09:18:50;;;;;;;9.82;3.90;;;18.10;99.90;;;;;;4975791;28;20117;-73
2022/07/05 09:21:21;;;;;;;8.32;3.70;;;18.30;99.90;;;;;;4959587;28;20125;-75
2022/07/05 09:23:57;;;;;;;11.40;4.45;;;18.80;99.90;;;;;;4958291;28;20433;-73
2022/07/05 09:26:37;;;;;;;12.15;3.92;;;18.90;99.90;;;;;;4963686;28;20042;-73
2022/07/05 09:29:05;;;;;;;11.55;4.80;;;19.20;99.90;;;;;;4966450;28;20043;-73
2022/07/05 09:31:36;;;;;;;13.85;5.18;;;19.40;99.90;;;;;;4957233;28;20050;-73
2022/07/05 09:34:10;;;;;;;10.73;4.45;;;19.50;99.90;;;;;;4956941;28;20082;-74
2022/07/05 09:36:58;;;;;;;13.77;4.70;;;19.70;99.90;;;;;;4957378;28;20043;-71
2022/07/05 09:39:30;;;;;;;14.75;4.57;;;19.60;99.90;;;;;;4930888;28;20047;-74
2022/07/05 09:42:19;;;;;;;9.23;4.63;;;19.60;99.90;;;;;;4957795;28;20578;-73
2022/07/05 09:44:50;;;;;;;11.23;5.10;;;19.80;99.90;;;;;;4952781;28;20129;-71
2022/07/05 09:47:17;;;;;;;17.88;4.85;;;19.80;99.90;;;;;;4950848;28;20042;-73
2022/07/05 09:49:51;;;;;;;14.95;6.47;;;19.40;99.90;;;;;;4972078;28;20497;-69
2022/07/05 09:52:30;;;;;;;17.13;5.32;;;19.10;99.90;;;;;;4977212;28;20442;-73
2022/07/05 09:55:08;;;;;;;12.05;4.85;;;18.90;99.90;;;;;;4965403;28;20093;-73
2022/07/05 09:57:36;;;;;;;21.75;5.82;;;18.90;99.90;;;;;;4973232;28;20070;-70
2022/07/05 10:00:12;;;;;;;14.07;5.50;;;19.00;99.90;;;;;;4974910;28;20074;-74
2022/07/05 10:02:38;;;;;;;10.38;4.32;;;19.20;99.90;;;;;;4959231;28;20130;-73
2022/07/05 10:05:16;;;;;;;10.50;4.72;;;19.10;99.90;;;;;;4936814;29;20438;-74
2022/07/05 10:07:45;;;;;;;13.98;4.55;;;18.90;99.90;;;;;;4960733;28;20034;-73
2022/07/05 10:10:13;;;;;;;16.10;5.15;;;18.70;99.90;;;;;;4961484;28;20042;-74
2022/07/05 10:12:40;;;;;;;14.15;5.53;;;18.60;99.90;;;;;;4952480;28;20039;-71
2022/07/05 10:15:09;;;;;;;15.82;5.50;;;18.70;99.90;;;;;;4958018;28;20125;-71
2022/07/05 10:18:04;;;;;;;12.68;5.85;;;18.70;99.90;;;;;;4972720;28;20055;-70
2022/07/05 10:20:44;;;;;;;12.88;5.80;;;18.70;99.90;;;;;;4979236;28;20034;-69
2022/07/05 10:23:15;;;;;;;15.70;6.00;;;18.70;99.90;;;;;;4970747;28;20042;-71
2022/07/05 10:25:43;;;;;;;14.38;6.85;;;18.60;99.90;;;;;;4941001;28;20452;-70
2022/07/05 10:28:10;;;;;;;14.45;6.75;;;18.50;99.90;;;;;;4956738;28;20117;-69
2022/07/05 10:30:36;;;;;;;14.90;5.88;;;18.30;99.90;;;;;;4957531;28;20031;-69
2022/07/05 10:33:05;;;;;;;13.05;5.85;;;18.20;99.90;;;;;;4957780;28;20046;-71
2022/07/05 10:35:31;;;;;;;15.98;6.55;;;18.20;99.90;;;;;;4957242;28;20098;-70
2022/07/05 10:37:58;;;;;;;17.08;7.18;;;18.20;99.90;;;;;;4961540;28;20050;-68
2022/07/05 10:40:26;;;;;;;16.73;6.53;;;18.40;99.90;;;;;;4957673;28;20043;-72
2022/07/05 10:42:58;;;;;;;21.52;6.70;;;18.50;99.90;;;;;;4951455;28;20053;-70
2022/07/05 10:45:24;;;;;;;14.77;6.22;;;18.80;99.90;;;;;;4957531;28;20038;-70
2022/07/05 10:48:15;;;;;;;17.88;6.88;;;19.00;99.90;;;;;;4949219;29;20118;-72
2022/07/05 10:50:56;;;;;;;14.95;6.97;;;19.00;99.90;;;;;;4937585;29;20047;-72
2022/07/05 10:53:42;;;;;;;14.93;6.40;;;19.20;99.90;;;;;;4943463;28;20528;-71
2022/07/05 10:56:08;;;;;;;13.43;6.75;;;19.00;99.90;;;;;;4953099;28;20513;-72
2022/07/05 10:58:37;;;;;;;14.05;6.20;;;19.00;99.90;;;;;;4956953;28;20046;-69
2022/07/05 11:01:12;;;;;;;19.75;6.88;;;19.10;99.90;;;;;;4956470;28;20050;-72
2022/07/05 11:03:47;;;;;;;17.48;6.05;;;19.20;99.90;;;;;;4952010;28;20051;-69
2022/07/05 11:06:27;;;;;;;12.90;6.00;;;19.30;99.90;;;;;;4954087;28;20054;-71
2022/07/05 11:08:59;;;;;;;17.60;6.10;;;19.30;99.90;;;;;;4956298;28;20050;-72
2022/07/05 11:11:40;;;;;;;17.58;6.15;;;18.90;99.90;;;;;;4956430;28;20046;-71
2022/07/05 11:14:25;;;;;;;17.35;6.40;;;18.60;99.90;;;;;;4955658;28;20043;-73
2022/07/05 11:17:15;;;;;;;16.02;6.60;;;18.30;99.90;;;;;;4961550;28;20050;-72
2022/07/05 11:20:05;;;;;;;13.82;5.80;;;18.10;99.90;;;;;;4964370;28;20074;-69
2022/07/05 11:22:32;;;;;;;18.33;6.55;;;18.40;99.90;;;;;;4957298;28;20035;-68
2022/07/05 11:24:59;;;;;;;24.88;5.50;;;18.60;99.90;;;;;;4963817;28;20054;-69
2022/07/05 11:27:25;;;;;;;13.70;5.75;;;18.80;99.90;;;;;;4972312;28;20543;-70
2022/07/05 11:29:52;;;;;;;14.68;5.55;;;19.00;99.90;;;;;;4956042;28;20138;-68
2022/07/05 11:32:36;;;;;;;14.23;5.72;;;19.20;99.90;;;;;;4955930;28;20493;-69
2022/07/05 11:35:17;;;;;;;14.43;5.40;;;19.30;99.90;;;;;;4955697;28;20047;-70
2022/07/05 11:38:09;;;;;;;10.00;5.03;;;19.30;99.90;;;;;;4972243;28;20050;-71
2022/07/05 11:40:37;;;;;;;9.13;4.57;;;19.60;99.90;;;;;;4955478;28;20127;-68
2022/07/05 11:43:03;;;;;;;8.52;4.45;;;19.50;99.90;;;;;;4960916;28;20097;-69
2022/07/05 11:45:31;;;;;;;11.55;4.25;;;19.50;99.90;;;;;;4968933;28;20105;-72
2022/07/05 11:47:57;;;;;;;11.18;4.63;;;19.40;99.90;;;;;;4947339;28;20479;-71
2022/07/05 11:50:31;;;;;;;10.23;4.20;;;19.30;99.90;;;;;;4955125;28;20074;-72
2022/07/05 11:52:58;;;;;;;9.40;4.00;;;19.20;99.90;;;;;;4955698;28;20035;-71
2022/07/05 11:55:26;;;;;;;14.43;3.90;;;19.20;99.90;;;;;;4954575;28;20066;-74
2022/07/05 11:57:53;;;;;;;11.63;4.00;;;19.40;99.90;;;;;;4953091;28;20038;-69
2022/07/05 12:00:32;;;;;;;11.73;4.53;;;19.40;99.90;;;;;;4974555;28;20203;-72
2022/07/05 12:02:58;;;;;;;13.18;4.00;;;19.50;99.90;;;;;;4961815;28;20043;-70
2022/07/05 12:05:31;;;;;;;10.10;4.03;;;19.50;99.90;;;;;;4955122;28;20544;-73
2022/07/05 12:07:57;;;;;;;12.80;3.80;;;19.50;99.90;;;;;;4950948;28;20449;-72
2022/07/05 12:13:08;;;;;;;10.07;3.17;;;19.70;99.90;;;;;;4954683;28;20429;-72
2022/07/05 12:15:35;;;;;;;5.43;3.05;;;19.90;99.90;;;;;;4954735;28;20054;-71
2022/07/05 12:18:03;;;;;;;6.45;3.45;;;20.00;99.90;;;;;;4952606;28;20047;-72
2022/07/05 12:20:31;;;;;;;9.60;2.72;;;19.90;99.90;;;;;;4954912;28;20073;-75
2022/07/05 12:22:58;;;;;;;8.05;2.90;;;19.90;99.90;;;;;;4970475;28;20452;-73
2022/07/05 12:25:25;;;;;;;7.53;2.72;;;19.90;99.90;;;;;;4945182;28;20047;-72
2022/07/05 12:27:53;;;;;;;6.22;2.78;;;19.90;99.90;;;;;;4952936;28;20050;-69
2022/07/05 12:30:18;;;;;;;4.97;2.45;;;19.90;99.90;;;;;;4936587;29;20050;-73
2022/07/05 12:32:55;;;;;;;6.72;2.67;;;20.00;99.90;;;;;;4935741;29;20185;-73
2022/07/05 12:35:40;;;;;;;6.13;2.70;;;20.00;99.90;;;;;;4938908;29;20062;-74
2022/07/05 12:38:07;;;;;;;8.63;3.40;;;20.10;99.90;;;;;;4940273;29;20550;-69
2022/07/05 12:40:33;;;;;;;7.93;2.50;;;20.10;99.90;;;;;;4940430;29;20573;-72
2022/07/05 12:43:04;;;;;;;8.20;2.50;;;20.00;99.90;;;;;;4939987;29;20131;-70
2022/07/05 12:45:30;;;;;;;7.78;3.28;;;19.80;99.90;;;;;;4939586;29;20083;-70